sensor_id;sensor_type;location;lat;lon;timestamp;P1;durP1;ratioP1;P2;durP2;ratioP2
11763;SDS011;5939;56.522;14.950;2023-04-21T00:00:03;4.57;;;3.17;;
11763;SDS011;5939;56.522;14.950;2023-04-21T00:02:33;3.57;;;2.87;;
11763;SDS011;5939;56.522;14.950;2023-04-21T00:05:03;4.50;;;2.97;;
11763;SDS011;5939;56.522;14.950;2023-04-21T00:07:30;3.73;;;3.03;;
11763;SDS011;5939;56.522;14.950;2023-04-21T00:09:56;3.37;;;2.93;;
11763;SDS011;5939;56.522;14.950;2023-04-21T00:12:21;3.87;;;2.87;;
11763;SDS011;5939;56.522;14.950;2023-04-21T00:14:47;3.67;;;3.00;;
11763;SDS011;5939;56.522;14.950;2023-04-21T00:17:12;3.20;;;2.80;;
11763;SDS011;5939;56.522;14.950;2023-04-21T00:19:38;3.97;;;3.00;;
11763;SDS011;5939;56.522;14.950;2023-04-21T00:22:03;3.33;;;2.97;;
11763;SDS011;5939;56.522;14.950;2023-04-21T00:24:32;3.70;;;3.17;;
11763;SDS011;5939;56.522;14.950;2023-04-21T00:26:57;3.43;;;2.73;;
11763;SDS011;5939;56.522;14.950;2023-04-21T00:29:23;3.90;;;3.10;;
11763;SDS011;5939;56.522;14.950;2023-04-21T00:31:49;3.30;;;2.80;;
11763;SDS011;5939;56.522;14.950;2023-04-21T00:34:14;4.10;;;3.13;;
11763;SDS011;5939;56.522;14.950;2023-04-21T00:36:40;3.17;;;2.73;;
11763;SDS011;5939;56.522;14.950;2023-04-21T00:39:05;3.07;;;2.70;;
11763;SDS011;5939;56.522;14.950;2023-04-21T00:41:31;3.30;;;3.00;;
11763;SDS011;5939;56.522;14.950;2023-04-21T00:44:06;3.67;;;2.80;;
11763;SDS011;5939;56.522;14.950;2023-04-21T00:46:33;5.27;;;3.13;;
11763;SDS011;5939;56.522;14.950;2023-04-21T00:48:59;3.53;;;2.70;;
11763;SDS011;5939;56.522;14.950;2023-04-21T00:51:28;3.33;;;2.93;;
11763;SDS011;5939;56.522;14.950;2023-04-21T00:53:57;3.03;;;2.73;;
11763;SDS011;5939;56.522;14.950;2023-04-21T00:56:24;3.50;;;3.20;;
11763;SDS011;5939;56.522;14.950;2023-04-21T00:58:51;3.97;;;3.23;;
11763;SDS011;5939;56.522;14.950;2023-04-21T01:01:18;3.70;;;2.83;;
11763;SDS011;5939;56.522;14.950;2023-04-21T01:03:44;3.90;;;3.10;;
11763;SDS011;5939;56.522;14.950;2023-04-21T01:06:12;3.77;;;3.37;;
11763;SDS011;5939;56.522;14.950;2023-04-21T01:08:38;4.20;;;3.13;;
11763;SDS011;5939;56.522;14.950;2023-04-21T01:11:10;4.37;;;3.00;;
11763;SDS011;5939;56.522;14.950;2023-04-21T01:13:37;3.87;;;2.80;;
11763;SDS011;5939;56.522;14.950;2023-04-21T01:16:03;4.53;;;2.97;;
11763;SDS011;5939;56.522;14.950;2023-04-21T01:18:30;3.63;;;2.90;;
11763;SDS011;5939;56.522;14.950;2023-04-21T01:20:55;4.20;;;3.20;;
11763;SDS011;5939;56.522;14.950;2023-04-21T01:23:22;3.70;;;3.00;;
11763;SDS011;5939;56.522;14.950;2023-04-21T01:25:49;4.57;;;2.90;;
11763;SDS011;5939;56.522;14.950;2023-04-21T01:28:20;4.03;;;3.20;;
11763;SDS011;5939;56.522;14.950;2023-04-21T01:30:50;4.53;;;2.83;;
11763;SDS011;5939;56.522;14.950;2023-04-21T01:33:16;3.37;;;3.07;;
11763;SDS011;5939;56.522;14.950;2023-04-21T01:35:43;3.03;;;2.73;;
11763;SDS011;5939;56.522;14.950;2023-04-21T01:38:09;3.70;;;2.93;;
11763;SDS011;5939;56.522;14.950;2023-04-21T01:40:35;3.60;;;3.23;;
11763;SDS011;5939;56.522;14.950;2023-04-21T01:43:01;4.07;;;3.10;;
11763;SDS011;5939;56.522;14.950;2023-04-21T01:45:28;3.30;;;2.87;;
11763;SDS011;5939;56.522;14.950;2023-04-21T01:47:54;2.67;;;2.40;;
11763;SDS011;5939;56.522;14.950;2023-04-21T01:50:20;3.73;;;3.00;;
11763;SDS011;5939;56.522;14.950;2023-04-21T01:52:46;3.30;;;3.00;;
11763;SDS011;5939;56.522;14.950;2023-04-21T01:55:11;3.70;;;3.13;;
11763;SDS011;5939;56.522;14.950;2023-04-21T01:57:37;3.57;;;2.80;;
11763;SDS011;5939;56.522;14.950;2023-04-21T02:00:03;3.37;;;2.73;;
11763;SDS011;5939;56.522;14.950;2023-04-21T02:02:29;4.23;;;2.97;;
11763;SDS011;5939;56.522;14.950;2023-04-21T02:04:55;3.10;;;2.67;;
11763;SDS011;5939;56.522;14.950;2023-04-21T02:07:20;4.30;;;3.30;;
11763;SDS011;5939;56.522;14.950;2023-04-21T02:09:46;2.87;;;2.57;;
11763;SDS011;5939;56.522;14.950;2023-04-21T02:12:12;3.87;;;2.70;;
11763;SDS011;5939;56.522;14.950;2023-04-21T02:14:37;3.30;;;3.00;;
11763;SDS011;5939;56.522;14.950;2023-04-21T02:17:03;4.17;;;2.93;;
11763;SDS011;5939;56.522;14.950;2023-04-21T02:19:29;3.33;;;2.80;;
11763;SDS011;5939;56.522;14.950;2023-04-21T02:21:55;3.83;;;3.10;;
11763;SDS011;5939;56.522;14.950;2023-04-21T02:24:21;3.63;;;2.90;;
11763;SDS011;5939;56.522;14.950;2023-04-21T02:26:46;3.50;;;2.87;;
11763;SDS011;5939;56.522;14.950;2023-04-21T02:29:12;4.20;;;2.80;;
11763;SDS011;5939;56.522;14.950;2023-04-21T02:31:38;3.33;;;3.00;;
11763;SDS011;5939;56.522;14.950;2023-04-21T02:34:04;3.20;;;2.90;;
11763;SDS011;5939;56.522;14.950;2023-04-21T02:36:29;3.93;;;3.20;;
11763;SDS011;5939;56.522;14.950;2023-04-21T02:38:56;3.63;;;2.80;;
11763;SDS011;5939;56.522;14.950;2023-04-21T02:41:21;3.23;;;2.93;;
11763;SDS011;5939;56.522;14.950;2023-04-21T02:43:47;4.13;;;3.03;;
11763;SDS011;5939;56.522;14.950;2023-04-21T02:46:13;3.53;;;2.90;;
11763;SDS011;5939;56.522;14.950;2023-04-21T02:48:39;4.83;;;3.03;;
11763;SDS011;5939;56.522;14.950;2023-04-21T02:51:04;3.43;;;3.00;;
11763;SDS011;5939;56.522;14.950;2023-04-21T02:53:38;4.03;;;3.07;;
11763;SDS011;5939;56.522;14.950;2023-04-21T02:56:05;3.20;;;2.90;;
11763;SDS011;5939;56.522;14.950;2023-04-21T02:58:32;3.27;;;2.80;;
11763;SDS011;5939;56.522;14.950;2023-04-21T03:00:59;3.10;;;2.60;;
11763;SDS011;5939;56.522;14.950;2023-04-21T03:03:26;3.00;;;2.70;;
11763;SDS011;5939;56.522;14.950;2023-04-21T03:05:58;3.60;;;2.90;;
11763;SDS011;5939;56.522;14.950;2023-04-21T03:08:24;3.87;;;3.13;;
11763;SDS011;5939;56.522;14.950;2023-04-21T03:10:51;3.20;;;2.83;;
11763;SDS011;5939;56.522;14.950;2023-04-21T03:13:17;3.40;;;3.03;;
11763;SDS011;5939;56.522;14.950;2023-04-21T03:15:43;3.70;;;3.07;;
11763;SDS011;5939;56.522;14.950;2023-04-21T03:18:09;4.13;;;3.07;;
11763;SDS011;5939;56.522;14.950;2023-04-21T03:20:35;3.70;;;3.00;;
11763;SDS011;5939;56.522;14.950;2023-04-21T03:23:01;3.43;;;3.10;;
11763;SDS011;5939;56.522;14.950;2023-04-21T03:25:27;3.70;;;2.70;;
11763;SDS011;5939;56.522;14.950;2023-04-21T03:27:53;3.20;;;2.90;;
11763;SDS011;5939;56.522;14.950;2023-04-21T03:30:20;3.50;;;3.20;;
11763;SDS011;5939;56.522;14.950;2023-04-21T03:32:46;4.13;;;3.03;;
11763;SDS011;5939;56.522;14.950;2023-04-21T03:35:12;3.67;;;3.20;;
11763;SDS011;5939;56.522;14.950;2023-04-21T03:37:38;3.93;;;2.93;;
11763;SDS011;5939;56.522;14.950;2023-04-21T03:40:04;3.70;;;3.00;;
11763;SDS011;5939;56.522;14.950;2023-04-21T03:42:31;3.30;;;2.93;;
11763;SDS011;5939;56.522;14.950;2023-04-21T03:45:03;4.13;;;2.73;;
11763;SDS011;5939;56.522;14.950;2023-04-21T03:47:30;3.47;;;2.97;;
11763;SDS011;5939;56.522;14.950;2023-04-21T03:49:56;3.70;;;3.03;;
11763;SDS011;5939;56.522;14.950;2023-04-21T03:52:22;3.33;;;3.03;;
11763;SDS011;5939;56.522;14.950;2023-04-21T03:54:48;4.03;;;3.10;;
11763;SDS011;5939;56.522;14.950;2023-04-21T03:57:15;3.57;;;3.23;;
11763;SDS011;5939;56.522;14.950;2023-04-21T03:59:41;3.60;;;2.93;;
11763;SDS011;5939;56.522;14.950;2023-04-21T04:02:07;3.93;;;2.87;;
11763;SDS011;5939;56.522;14.950;2023-04-21T04:04:33;3.53;;;2.87;;
11763;SDS011;5939;56.522;14.950;2023-04-21T04:07:00;4.00;;;2.93;;
11763;SDS011;5939;56.522;14.950;2023-04-21T04:09:26;3.97;;;3.00;;
11763;SDS011;5939;56.522;14.950;2023-04-21T04:11:52;4.27;;;3.10;;
11763;SDS011;5939;56.522;14.950;2023-04-21T04:14:18;3.73;;;3.20;;
11763;SDS011;5939;56.522;14.950;2023-04-21T04:16:44;2.93;;;2.63;;
11763;SDS011;5939;56.522;14.950;2023-04-21T04:19:10;3.23;;;2.67;;
11763;SDS011;5939;56.522;14.950;2023-04-21T04:21:36;3.77;;;3.03;;
11763;SDS011;5939;56.522;14.950;2023-04-21T04:24:02;3.10;;;2.70;;
11763;SDS011;5939;56.522;14.950;2023-04-21T04:26:29;3.20;;;2.90;;
11763;SDS011;5939;56.522;14.950;2023-04-21T04:28:58;4.17;;;3.13;;
11763;SDS011;5939;56.522;14.950;2023-04-21T04:31:25;4.10;;;2.83;;
11763;SDS011;5939;56.522;14.950;2023-04-21T04:33:53;3.27;;;2.97;;
11763;SDS011;5939;56.522;14.950;2023-04-21T04:36:19;3.43;;;2.90;;
11763;SDS011;5939;56.522;14.950;2023-04-21T04:38:45;5.67;;;2.80;;
11763;SDS011;5939;56.522;14.950;2023-04-21T04:41:12;3.30;;;2.97;;
11763;SDS011;5939;56.522;14.950;2023-04-21T04:43:39;3.53;;;2.97;;
11763;SDS011;5939;56.522;14.950;2023-04-21T04:46:05;3.43;;;3.00;;
11763;SDS011;5939;56.522;14.950;2023-04-21T04:48:33;4.53;;;2.97;;
11763;SDS011;5939;56.522;14.950;2023-04-21T04:50:59;3.80;;;2.90;;
11763;SDS011;5939;56.522;14.950;2023-04-21T04:53:28;3.23;;;2.93;;
11763;SDS011;5939;56.522;14.950;2023-04-21T04:55:54;2.63;;;2.43;;
11763;SDS011;5939;56.522;14.950;2023-04-21T04:58:22;2.80;;;2.60;;
11763;SDS011;5939;56.522;14.950;2023-04-21T05:00:48;2.87;;;2.57;;
11763;SDS011;5939;56.522;14.950;2023-04-21T05:03:14;3.50;;;3.10;;
11763;SDS011;5939;56.522;14.950;2023-04-21T05:05:40;4.10;;;3.23;;
11763;SDS011;5939;56.522;14.950;2023-04-21T05:08:07;3.30;;;3.00;;
11763;SDS011;5939;56.522;14.950;2023-04-21T05:10:33;3.37;;;3.07;;
11763;SDS011;5939;56.522;14.950;2023-04-21T05:12:59;3.23;;;2.93;;
11763;SDS011;5939;56.522;14.950;2023-04-21T05:15:25;4.80;;;3.30;;
11763;SDS011;5939;56.522;14.950;2023-04-21T05:17:51;5.60;;;3.00;;
11763;SDS011;5939;56.522;14.950;2023-04-21T05:20:17;2.93;;;2.67;;
11763;SDS011;5939;56.522;14.950;2023-04-21T05:22:43;3.20;;;2.90;;
11763;SDS011;5939;56.522;14.950;2023-04-21T05:25:09;3.87;;;2.80;;
11763;SDS011;5939;56.522;14.950;2023-04-21T05:27:39;3.37;;;3.07;;
11763;SDS011;5939;56.522;14.950;2023-04-21T05:30:05;5.03;;;2.90;;
11763;SDS011;5939;56.522;14.950;2023-04-21T05:32:31;3.67;;;2.63;;
11763;SDS011;5939;56.522;14.950;2023-04-21T05:34:57;3.63;;;3.20;;
11763;SDS011;5939;56.522;14.950;2023-04-21T05:37:24;3.47;;;2.93;;
11763;SDS011;5939;56.522;14.950;2023-04-21T05:39:50;4.10;;;3.40;;
11763;SDS011;5939;56.522;14.950;2023-04-21T05:42:16;4.40;;;3.10;;
11763;SDS011;5939;56.522;14.950;2023-04-21T05:44:42;4.37;;;3.33;;
11763;SDS011;5939;56.522;14.950;2023-04-21T05:47:08;4.47;;;2.90;;
11763;SDS011;5939;56.522;14.950;2023-04-21T05:49:34;4.23;;;3.20;;
11763;SDS011;5939;56.522;14.950;2023-04-21T05:52:00;3.60;;;3.23;;
11763;SDS011;5939;56.522;14.950;2023-04-21T05:54:26;4.97;;;3.17;;
11763;SDS011;5939;56.522;14.950;2023-04-21T05:56:52;4.67;;;2.93;;
11763;SDS011;5939;56.522;14.950;2023-04-21T05:59:18;4.10;;;3.00;;
11763;SDS011;5939;56.522;14.950;2023-04-21T06:01:45;4.20;;;3.10;;
11763;SDS011;5939;56.522;14.950;2023-04-21T06:04:11;4.43;;;3.10;;
11763;SDS011;5939;56.522;14.950;2023-04-21T06:06:37;3.43;;;3.07;;
11763;SDS011;5939;56.522;14.950;2023-04-21T06:09:03;3.40;;;2.83;;
11763;SDS011;5939;56.522;14.950;2023-04-21T06:11:30;3.03;;;2.73;;
11763;SDS011;5939;56.522;14.950;2023-04-21T06:13:57;2.97;;;2.67;;
11763;SDS011;5939;56.522;14.950;2023-04-21T06:16:23;3.20;;;2.90;;
11763;SDS011;5939;56.522;14.950;2023-04-21T06:18:50;5.13;;;2.90;;
11763;SDS011;5939;56.522;14.950;2023-04-21T06:21:16;3.83;;;2.80;;
11763;SDS011;5939;56.522;14.950;2023-04-21T06:23:42;4.00;;;2.90;;
11763;SDS011;5939;56.522;14.950;2023-04-21T06:26:08;3.27;;;2.97;;
11763;SDS011;5939;56.522;14.950;2023-04-21T06:28:35;4.03;;;2.90;;
11763;SDS011;5939;56.522;14.950;2023-04-21T06:31:01;3.87;;;3.00;;
11763;SDS011;5939;56.522;14.950;2023-04-21T06:33:28;3.83;;;2.50;;
11763;SDS011;5939;56.522;14.950;2023-04-21T06:35:54;3.33;;;2.40;;
11763;SDS011;5939;56.522;14.950;2023-04-21T06:38:20;3.37;;;2.43;;
11763;SDS011;5939;56.522;14.950;2023-04-21T06:40:46;4.03;;;2.63;;
11763;SDS011;5939;56.522;14.950;2023-04-21T06:43:13;3.17;;;2.60;;
11763;SDS011;5939;56.522;14.950;2023-04-21T06:45:39;3.73;;;2.90;;
11763;SDS011;5939;56.522;14.950;2023-04-21T06:48:05;3.03;;;2.70;;
11763;SDS011;5939;56.522;14.950;2023-04-21T06:50:31;3.40;;;2.77;;
11763;SDS011;5939;56.522;14.950;2023-04-21T06:52:57;3.60;;;2.50;;
11763;SDS011;5939;56.522;14.950;2023-04-21T06:55:23;3.80;;;2.60;;
11763;SDS011;5939;56.522;14.950;2023-04-21T06:57:49;3.23;;;2.70;;
11763;SDS011;5939;56.522;14.950;2023-04-21T07:00:15;2.90;;;2.70;;
11763;SDS011;5939;56.522;14.950;2023-04-21T07:02:41;3.47;;;2.63;;
11763;SDS011;5939;56.522;14.950;2023-04-21T07:05:07;2.77;;;2.43;;
11763;SDS011;5939;56.522;14.950;2023-04-21T07:07:33;3.43;;;2.10;;
11763;SDS011;5939;56.522;14.950;2023-04-21T07:09:59;3.53;;;2.40;;
11763;SDS011;5939;56.522;14.950;2023-04-21T07:12:25;2.90;;;2.57;;
11763;SDS011;5939;56.522;14.950;2023-04-21T07:14:51;2.80;;;2.50;;
11763;SDS011;5939;56.522;14.950;2023-04-21T07:17:17;2.53;;;2.20;;
11763;SDS011;5939;56.522;14.950;2023-04-21T07:19:43;4.40;;;2.60;;
11763;SDS011;5939;56.522;14.950;2023-04-21T07:22:10;3.50;;;2.63;;
11763;SDS011;5939;56.522;14.950;2023-04-21T07:24:36;2.73;;;2.50;;
11763;SDS011;5939;56.522;14.950;2023-04-21T07:27:03;3.07;;;2.47;;
11763;SDS011;5939;56.522;14.950;2023-04-21T07:29:29;2.67;;;2.23;;
11763;SDS011;5939;56.522;14.950;2023-04-21T07:31:55;3.93;;;2.90;;
11763;SDS011;5939;56.522;14.950;2023-04-21T07:34:22;3.57;;;2.43;;
11763;SDS011;5939;56.522;14.950;2023-04-21T07:36:49;2.60;;;2.30;;
11763;SDS011;5939;56.522;14.950;2023-04-21T07:39:15;2.50;;;2.30;;
11763;SDS011;5939;56.522;14.950;2023-04-21T07:41:41;3.63;;;2.40;;
11763;SDS011;5939;56.522;14.950;2023-04-21T07:44:07;4.13;;;2.60;;
11763;SDS011;5939;56.522;14.950;2023-04-21T07:46:33;2.70;;;2.17;;
11763;SDS011;5939;56.522;14.950;2023-04-21T07:48:59;2.40;;;2.20;;
11763;SDS011;5939;56.522;14.950;2023-04-21T07:51:25;3.97;;;2.70;;
11763;SDS011;5939;56.522;14.950;2023-04-21T07:53:52;3.90;;;2.43;;
11763;SDS011;5939;56.522;14.950;2023-04-21T07:56:18;3.90;;;2.67;;
11763;SDS011;5939;56.522;14.950;2023-04-21T07:58:44;3.17;;;2.27;;
11763;SDS011;5939;56.522;14.950;2023-04-21T08:01:10;4.00;;;2.40;;
11763;SDS011;5939;56.522;14.950;2023-04-21T08:03:36;2.67;;;2.13;;
11763;SDS011;5939;56.522;14.950;2023-04-21T08:06:02;3.90;;;2.33;;
11763;SDS011;5939;56.522;14.950;2023-04-21T08:08:29;4.00;;;2.50;;
11763;SDS011;5939;56.522;14.950;2023-04-21T08:10:55;3.27;;;2.20;;
11763;SDS011;5939;56.522;14.950;2023-04-21T08:13:21;4.17;;;2.30;;
11763;SDS011;5939;56.522;14.950;2023-04-21T08:15:52;2.83;;;2.50;;
11763;SDS011;5939;56.522;14.950;2023-04-21T08:18:18;2.20;;;1.93;;
11763;SDS011;5939;56.522;14.950;2023-04-21T08:20:44;2.50;;;2.30;;
11763;SDS011;5939;56.522;14.950;2023-04-21T08:23:12;3.43;;;2.43;;
11763;SDS011;5939;56.522;14.950;2023-04-21T08:25:38;2.13;;;1.93;;
11763;SDS011;5939;56.522;14.950;2023-04-21T08:28:04;3.00;;;2.10;;
11763;SDS011;5939;56.522;14.950;2023-04-21T08:30:30;2.87;;;2.10;;
11763;SDS011;5939;56.522;14.950;2023-04-21T08:32:56;2.77;;;2.20;;
11763;SDS011;5939;56.522;14.950;2023-04-21T08:35:22;2.83;;;1.83;;
11763;SDS011;5939;56.522;14.950;2023-04-21T08:37:48;2.27;;;2.00;;
11763;SDS011;5939;56.522;14.950;2023-04-21T08:40:14;3.73;;;2.10;;
11763;SDS011;5939;56.522;14.950;2023-04-21T08:42:41;2.63;;;2.00;;
11763;SDS011;5939;56.522;14.950;2023-04-21T08:45:07;2.07;;;1.87;;
11763;SDS011;5939;56.522;14.950;2023-04-21T08:47:34;2.33;;;2.00;;
11763;SDS011;5939;56.522;14.950;2023-04-21T08:50:02;4.10;;;2.00;;
11763;SDS011;5939;56.522;14.950;2023-04-21T08:52:28;2.23;;;1.77;;
11763;SDS011;5939;56.522;14.950;2023-04-21T08:54:54;2.33;;;2.00;;
11763;SDS011;5939;56.522;14.950;2023-04-21T08:57:20;2.50;;;1.83;;
11763;SDS011;5939;56.522;14.950;2023-04-21T08:59:46;2.17;;;1.83;;
11763;SDS011;5939;56.522;14.950;2023-04-21T09:02:13;3.53;;;1.90;;
11763;SDS011;5939;56.522;14.950;2023-04-21T09:04:43;2.30;;;1.93;;
11763;SDS011;5939;56.522;14.950;2023-04-21T09:07:10;2.40;;;1.93;;
11763;SDS011;5939;56.522;14.950;2023-04-21T09:09:52;3.80;;;1.70;;
11763;SDS011;5939;56.522;14.950;2023-04-21T09:12:18;2.57;;;2.10;;
11763;SDS011;5939;56.522;14.950;2023-04-21T09:14:44;2.00;;;1.80;;
11763;SDS011;5939;56.522;14.950;2023-04-21T09:17:10;2.50;;;1.90;;
11763;SDS011;5939;56.522;14.950;2023-04-21T09:19:36;3.73;;;1.80;;
11763;SDS011;5939;56.522;14.950;2023-04-21T09:22:03;2.07;;;1.87;;
11763;SDS011;5939;56.522;14.950;2023-04-21T09:24:29;3.30;;;2.00;;
11763;SDS011;5939;56.522;14.950;2023-04-21T09:26:55;2.27;;;1.90;;
11763;SDS011;5939;56.522;14.950;2023-04-21T09:29:24;2.20;;;2.00;;
11763;SDS011;5939;56.522;14.950;2023-04-21T09:31:50;2.60;;;1.77;;
11763;SDS011;5939;56.522;14.950;2023-04-21T09:34:17;2.63;;;2.07;;
11763;SDS011;5939;56.522;14.950;2023-04-21T09:36:44;3.50;;;2.03;;
11763;SDS011;5939;56.522;14.950;2023-04-21T09:39:11;3.77;;;2.10;;
11763;SDS011;5939;56.522;14.950;2023-04-21T09:41:37;2.33;;;1.80;;
11763;SDS011;5939;56.522;14.950;2023-04-21T09:44:03;2.57;;;1.53;;
11763;SDS011;5939;56.522;14.950;2023-04-21T09:46:31;2.33;;;2.10;;
11763;SDS011;5939;56.522;14.950;2023-04-21T09:48:59;2.00;;;1.80;;
11763;SDS011;5939;56.522;14.950;2023-04-21T09:51:25;2.50;;;2.03;;
11763;SDS011;5939;56.522;14.950;2023-04-21T09:53:52;2.20;;;1.70;;
11763;SDS011;5939;56.522;14.950;2023-04-21T09:56:20;1.97;;;1.77;;
11763;SDS011;5939;56.522;14.950;2023-04-21T09:58:46;1.83;;;1.70;;
11763;SDS011;5939;56.522;14.950;2023-04-21T10:01:19;1.80;;;1.50;;
11763;SDS011;5939;56.522;14.950;2023-04-21T10:03:46;2.37;;;1.60;;
11763;SDS011;5939;56.522;14.950;2023-04-21T10:06:13;2.70;;;1.67;;
11763;SDS011;5939;56.522;14.950;2023-04-21T10:08:39;1.87;;;1.57;;
11763;SDS011;5939;56.522;14.950;2023-04-21T10:11:06;1.90;;;1.70;;
11763;SDS011;5939;56.522;14.950;2023-04-21T10:13:32;1.83;;;1.67;;
11763;SDS011;5939;56.522;14.950;2023-04-21T10:16:05;3.33;;;1.83;;
11763;SDS011;5939;56.522;14.950;2023-04-21T10:18:36;3.70;;;1.90;;
11763;SDS011;5939;56.522;14.950;2023-04-21T10:23:37;3.53;;;1.53;;
11763;SDS011;5939;56.522;14.950;2023-04-21T10:26:10;1.30;;;1.20;;
11763;SDS011;5939;56.522;14.950;2023-04-21T10:28:44;2.53;;;1.63;;
11763;SDS011;5939;56.522;14.950;2023-04-21T10:31:31;1.47;;;1.30;;
11763;SDS011;5939;56.522;14.950;2023-04-21T10:39:11;1.53;;;1.43;;
11763;SDS011;5939;56.522;14.950;2023-04-21T10:41:54;1.40;;;1.30;;
11763;SDS011;5939;56.522;14.950;2023-04-21T10:44:22;2.00;;;1.60;;
11763;SDS011;5939;56.522;14.950;2023-04-21T10:46:49;1.40;;;1.30;;
11763;SDS011;5939;56.522;14.950;2023-04-21T10:54:34;1.40;;;1.30;;
11763;SDS011;5939;56.522;14.950;2023-04-21T10:57:07;1.50;;;1.40;;
11763;SDS011;5939;56.522;14.950;2023-04-21T10:59:34;3.47;;;1.57;;
11763;SDS011;5939;56.522;14.950;2023-04-21T11:02:06;1.87;;;1.50;;
11763;SDS011;5939;56.522;14.950;2023-04-21T11:04:35;2.00;;;1.40;;
11763;SDS011;5939;56.522;14.950;2023-04-21T11:09:35;2.33;;;1.70;;
11763;SDS011;5939;56.522;14.950;2023-04-21T11:12:02;1.60;;;1.30;;
11763;SDS011;5939;56.522;14.950;2023-04-21T11:14:31;1.47;;;1.37;;
11763;SDS011;5939;56.522;14.950;2023-04-21T11:16:59;1.97;;;1.20;;
11763;SDS011;5939;56.522;14.950;2023-04-21T11:19:26;1.37;;;1.20;;
11763;SDS011;5939;56.522;14.950;2023-04-21T11:21:52;1.77;;;1.37;;
11763;SDS011;5939;56.522;14.950;2023-04-21T11:24:21;1.50;;;1.20;;
11763;SDS011;5939;56.522;14.950;2023-04-21T11:26:47;1.60;;;1.50;;
11763;SDS011;5939;56.522;14.950;2023-04-21T11:29:13;1.83;;;1.43;;
11763;SDS011;5939;56.522;14.950;2023-04-21T11:31:41;2.00;;;1.30;;
11763;SDS011;5939;56.522;14.950;2023-04-21T11:34:09;1.90;;;1.50;;
11763;SDS011;5939;56.522;14.950;2023-04-21T11:36:37;2.10;;;1.40;;
11763;SDS011;5939;56.522;14.950;2023-04-21T11:39:05;2.40;;;1.70;;
11763;SDS011;5939;56.522;14.950;2023-04-21T11:41:34;1.87;;;1.60;;
11763;SDS011;5939;56.522;14.950;2023-04-21T11:44:03;1.57;;;1.33;;
11763;SDS011;5939;56.522;14.950;2023-04-21T11:46:29;1.10;;;1.00;;
11763;SDS011;5939;56.522;14.950;2023-04-21T11:51:54;1.50;;;1.30;;
11763;SDS011;5939;56.522;14.950;2023-04-21T11:54:20;2.33;;;1.40;;
11763;SDS011;5939;56.522;14.950;2023-04-21T11:56:48;1.43;;;1.20;;
11763;SDS011;5939;56.522;14.950;2023-04-21T11:59:15;2.10;;;1.10;;
11763;SDS011;5939;56.522;14.950;2023-04-21T12:01:51;1.30;;;1.20;;
11763;SDS011;5939;56.522;14.950;2023-04-21T12:04:19;1.90;;;1.30;;
11763;SDS011;5939;56.522;14.950;2023-04-21T12:06:46;1.40;;;1.30;;
11763;SDS011;5939;56.522;14.950;2023-04-21T12:09:23;3.80;;;1.43;;
11763;SDS011;5939;56.522;14.950;2023-04-21T12:11:49;2.03;;;1.40;;
11763;SDS011;5939;56.522;14.950;2023-04-21T12:14:21;1.63;;;1.30;;
11763;SDS011;5939;56.522;14.950;2023-04-21T12:16:48;2.07;;;1.20;;
11763;SDS011;5939;56.522;14.950;2023-04-21T12:19:24;2.47;;;1.30;;
11763;SDS011;5939;56.522;14.950;2023-04-21T12:22:00;1.30;;;1.20;;
11763;SDS011;5939;56.522;14.950;2023-04-21T12:24:26;1.70;;;1.10;;
11763;SDS011;5939;56.522;14.950;2023-04-21T12:26:51;2.00;;;1.20;;
11763;SDS011;5939;56.522;14.950;2023-04-21T12:29:18;1.87;;;1.20;;
11763;SDS011;5939;56.522;14.950;2023-04-21T12:31:43;1.47;;;1.10;;
11763;SDS011;5939;56.522;14.950;2023-04-21T12:34:09;1.93;;;1.03;;
11763;SDS011;5939;56.522;14.950;2023-04-21T12:36:35;1.30;;;1.20;;
11763;SDS011;5939;56.522;14.950;2023-04-21T12:39:00;1.10;;;1.00;;
11763;SDS011;5939;56.522;14.950;2023-04-21T12:41:26;1.10;;;1.00;;
11763;SDS011;5939;56.522;14.950;2023-04-21T12:43:52;1.57;;;1.47;;
11763;SDS011;5939;56.522;14.950;2023-04-21T12:46:17;1.10;;;1.00;;
11763;SDS011;5939;56.522;14.950;2023-04-21T12:48:43;1.30;;;1.20;;
11763;SDS011;5939;56.522;14.950;2023-04-21T12:51:09;1.20;;;1.10;;
11763;SDS011;5939;56.522;14.950;2023-04-21T12:53:34;1.50;;;1.10;;
11763;SDS011;5939;56.522;14.950;2023-04-21T12:56:01;1.53;;;1.20;;
11763;SDS011;5939;56.522;14.950;2023-04-21T12:58:27;4.87;;;1.50;;
11763;SDS011;5939;56.522;14.950;2023-04-21T13:00:53;1.13;;;1.00;;
11763;SDS011;5939;56.522;14.950;2023-04-21T13:03:19;1.13;;;1.03;;
11763;SDS011;5939;56.522;14.950;2023-04-21T13:05:45;2.13;;;1.00;;
11763;SDS011;5939;56.522;14.950;2023-04-21T13:08:11;2.33;;;1.20;;
11763;SDS011;5939;56.522;14.950;2023-04-21T13:10:36;3.63;;;1.23;;
11763;SDS011;5939;56.522;14.950;2023-04-21T13:13:02;1.23;;;1.03;;
11763;SDS011;5939;56.522;14.950;2023-04-21T13:15:28;1.87;;;1.20;;
11763;SDS011;5939;56.522;14.950;2023-04-21T13:17:53;1.40;;;1.03;;
11763;SDS011;5939;56.522;14.950;2023-04-21T13:20:19;4.07;;;1.40;;
11763;SDS011;5939;56.522;14.950;2023-04-21T13:22:46;2.73;;;1.20;;
11763;SDS011;5939;56.522;14.950;2023-04-21T13:25:12;3.03;;;1.20;;
11763;SDS011;5939;56.522;14.950;2023-04-21T13:27:37;3.17;;;1.23;;
11763;SDS011;5939;56.522;14.950;2023-04-21T13:30:07;1.20;;;1.10;;
11763;SDS011;5939;56.522;14.950;2023-04-21T13:32:35;1.03;;;1.00;;
11763;SDS011;5939;56.522;14.950;2023-04-21T13:35:02;2.53;;;1.10;;
11763;SDS011;5939;56.522;14.950;2023-04-21T13:37:35;1.40;;;0.90;;
11763;SDS011;5939;56.522;14.950;2023-04-21T13:40:04;1.40;;;1.10;;
11763;SDS011;5939;56.522;14.950;2023-04-21T13:42:32;2.23;;;1.00;;
11763;SDS011;5939;56.522;14.950;2023-04-21T13:44:59;1.63;;;1.30;;
11763;SDS011;5939;56.522;14.950;2023-04-21T13:47:27;1.40;;;1.00;;
11763;SDS011;5939;56.522;14.950;2023-04-21T13:49:54;1.97;;;1.10;;
11763;SDS011;5939;56.522;14.950;2023-04-21T13:52:20;1.37;;;1.10;;
11763;SDS011;5939;56.522;14.950;2023-04-21T13:54:45;1.47;;;1.10;;
11763;SDS011;5939;56.522;14.950;2023-04-21T13:57:11;1.20;;;1.10;;
11763;SDS011;5939;56.522;14.950;2023-04-21T13:59:37;1.00;;;1.00;;
11763;SDS011;5939;56.522;14.950;2023-04-21T14:02:02;1.73;;;1.00;;
11763;SDS011;5939;56.522;14.950;2023-04-21T14:04:28;1.07;;;0.90;;
11763;SDS011;5939;56.522;14.950;2023-04-21T14:06:54;2.20;;;1.20;;
11763;SDS011;5939;56.522;14.950;2023-04-21T14:09:20;1.70;;;0.90;;
11763;SDS011;5939;56.522;14.950;2023-04-21T14:11:46;1.10;;;1.00;;
11763;SDS011;5939;56.522;14.950;2023-04-21T14:14:11;1.00;;;0.90;;
11763;SDS011;5939;56.522;14.950;2023-04-21T14:16:37;1.87;;;1.30;;
11763;SDS011;5939;56.522;14.950;2023-04-21T14:19:03;1.10;;;1.00;;
11763;SDS011;5939;56.522;14.950;2023-04-21T14:21:28;1.20;;;1.10;;
11763;SDS011;5939;56.522;14.950;2023-04-21T14:23:54;1.13;;;1.00;;
11763;SDS011;5939;56.522;14.950;2023-04-21T14:26:20;1.60;;;1.20;;
11763;SDS011;5939;56.522;14.950;2023-04-21T14:28:46;2.17;;;1.07;;
11763;SDS011;5939;56.522;14.950;2023-04-21T14:31:11;1.73;;;1.00;;
11763;SDS011;5939;56.522;14.950;2023-04-21T14:33:37;3.03;;;1.03;;
11763;SDS011;5939;56.522;14.950;2023-04-21T14:36:03;2.20;;;1.20;;
11763;SDS011;5939;56.522;14.950;2023-04-21T14:38:28;1.20;;;1.10;;
11763;SDS011;5939;56.522;14.950;2023-04-21T14:40:54;1.33;;;1.00;;
11763;SDS011;5939;56.522;14.950;2023-04-21T14:43:20;3.60;;;1.20;;
11763;SDS011;5939;56.522;14.950;2023-04-21T14:45:46;1.23;;;1.00;;
11763;SDS011;5939;56.522;14.950;2023-04-21T14:48:12;1.10;;;1.00;;
11763;SDS011;5939;56.522;14.950;2023-04-21T14:50:41;1.60;;;1.00;;
11763;SDS011;5939;56.522;14.950;2023-04-21T14:53:07;1.37;;;1.10;;
11763;SDS011;5939;56.522;14.950;2023-04-21T14:55:33;1.10;;;1.00;;
11763;SDS011;5939;56.522;14.950;2023-04-21T14:57:58;1.93;;;1.20;;
11763;SDS011;5939;56.522;14.950;2023-04-21T15:00:24;1.33;;;1.20;;
11763;SDS011;5939;56.522;14.950;2023-04-21T15:02:51;1.30;;;1.20;;